sensor_id;sensor_type;location;lat;lon;timestamp;pressure;altitude;pressure_sealevel;temperature;humidity
15932;BME280;8065;49.520;11.284;2023-02-28T00:00:47;98371.69;;;0.91;69.91
15932;BME280;8065;49.520;11.284;2023-02-28T00:03:14;98366.81;;;1.12;68.73
15932;BME280;8065;49.520;11.284;2023-02-28T00:05:40;98365.56;;;1.14;69.42
15932;BME280;8065;49.520;11.284;2023-02-28T00:08:09;98363.47;;;0.99;70.17
15932;BME280;8065;49.520;11.284;2023-02-28T00:10:35;98363.47;;;0.99;69.59
15932;BME280;8065;49.520;11.284;2023-02-28T00:13:04;98362.84;;;1.09;69.49
15932;BME280;8065;49.520;11.284;2023-02-28T00:15:32;98356.34;;;1.12;68.92
15932;BME280;8065;49.520;11.284;2023-02-28T00:17:59;98360.84;;;0.99;70.22
15932;BME280;8065;49.520;11.284;2023-02-28T00:20:25;98363.50;;;1.16;69.05
15932;BME280;8065;49.520;11.284;2023-02-28T00:22:53;98357.31;;;1.22;69.33
15932;BME280;8065;49.520;11.284;2023-02-28T00:25:23;98360.78;;;1.11;69.16
15932;BME280;8065;49.520;11.284;2023-02-28T00:27:50;98354.63;;;1.17;69.86
15932;BME280;8065;49.520;11.284;2023-02-28T00:30:18;98354.44;;;1.07;70.11
15932;BME280;8065;49.520;11.284;2023-02-28T00:32:45;98357.50;;;1.33;68.61
15932;BME280;8065;49.520;11.284;2023-02-28T00:35:12;98355.78;;;1.38;68.42
15932;BME280;8065;49.520;11.284;2023-02-28T00:37:39;98360.53;;;1.41;68.22
15932;BME280;8065;49.520;11.284;2023-02-28T00:40:06;98358.50;;;1.15;69.58
15932;BME280;8065;49.520;11.284;2023-02-28T00:42:35;98358.31;;;1.33;69.33
15932;BME280;8065;49.520;11.284;2023-02-28T00:45:01;98360.06;;;1.44;68.66
15932;BME280;8065;49.520;11.284;2023-02-28T00:47:29;98361.47;;;1.35;68.71
15932;BME280;8065;49.520;11.284;2023-02-28T00:49:56;98356.00;;;1.37;69.11
15932;BME280;8065;49.520;11.284;2023-02-28T00:52:22;98360.91;;;1.33;69.50
15932;BME280;8065;49.520;11.284;2023-02-28T00:54:49;98360.28;;;0.97;70.24
15932;BME280;8065;49.520;11.284;2023-02-28T00:57:15;98352.09;;;1.22;69.53
15932;BME280;8065;49.520;11.284;2023-02-28T00:59:43;98350.16;;;1.01;70.27
15932;BME280;8065;49.520;11.284;2023-02-28T01:02:09;98356.34;;;1.12;70.34
15932;BME280;8065;49.520;11.284;2023-02-28T01:04:36;98347.81;;;1.16;70.05
15932;BME280;8065;49.520;11.284;2023-02-28T01:07:03;98344.44;;;1.04;69.93
15932;BME280;8065;49.520;11.284;2023-02-28T01:09:29;98349.69;;;1.04;70.10
15932;BME280;8065;49.520;11.284;2023-02-28T01:11:56;98347.00;;;1.16;70.44
15932;BME280;8065;49.520;11.284;2023-02-28T01:14:22;98345.41;;;1.15;69.41
15932;BME280;8065;49.520;11.284;2023-02-28T01:16:50;98349.38;;;1.17;70.30
15932;BME280;8065;49.520;11.284;2023-02-28T01:19:17;98339.34;;;0.97;70.66
15932;BME280;8065;49.520;11.284;2023-02-28T01:21:44;98346.06;;;0.93;70.64
15932;BME280;8065;49.520;11.284;2023-02-28T01:24:10;98346.78;;;0.89;70.75
15932;BME280;8065;49.520;11.284;2023-02-28T01:26:37;98341.53;;;0.72;71.35
15932;BME280;8065;49.520;11.284;2023-02-28T01:29:03;98350.19;;;0.61;72.08
15932;BME280;8065;49.520;11.284;2023-02-28T01:31:30;98342.69;;;0.64;71.86
15932;BME280;8065;49.520;11.284;2023-02-28T01:33:57;98332.84;;;0.83;71.56
15932;BME280;8065;49.520;11.284;2023-02-28T01:36:24;98334.44;;;0.84;71.50
15932;BME280;8065;49.520;11.284;2023-02-28T01:38:51;98340.28;;;0.63;72.11
15932;BME280;8065;49.520;11.284;2023-02-28T01:41:20;98336.63;;;0.76;72.20
15932;BME280;8065;49.520;11.284;2023-02-28T01:44:02;98333.56;;;0.67;71.81
15932;BME280;8065;49.520;11.284;2023-02-28T01:46:30;98332.81;;;0.55;72.11
15932;BME280;8065;49.520;11.284;2023-02-28T01:49:02;98335.63;;;0.65;72.40
15932;BME280;8065;49.520;11.284;2023-02-28T01:51:32;98326.75;;;0.66;72.16
15932;BME280;8065;49.520;11.284;2023-02-28T01:54:04;98331.53;;;0.69;72.11
15932;BME280;8065;49.520;11.284;2023-02-28T01:56:35;98327.88;;;0.70;72.54
15932;BME280;8065;49.520;11.284;2023-02-28T01:59:03;98328.91;;;0.69;72.29
15932;BME280;8065;49.520;11.284;2023-02-28T02:01:30;98336.38;;;0.77;71.64
15932;BME280;8065;49.520;11.284;2023-02-28T02:04:00;98330.88;;;0.62;72.39
15932;BME280;8065;49.520;11.284;2023-02-28T02:06:30;98327.88;;;0.70;72.67
15932;BME280;8065;49.520;11.284;2023-02-28T02:08:58;98329.03;;;0.62;72.41
15932;BME280;8065;49.520;11.284;2023-02-28T02:11:25;98334.50;;;0.61;72.53
15932;BME280;8065;49.520;11.284;2023-02-28T02:14:24;98329.13;;;0.68;72.55
15932;BME280;8065;49.520;11.284;2023-02-28T02:17:04;98320.94;;;0.76;72.50
15932;BME280;8065;49.520;11.284;2023-02-28T02:23:27;98324.25;;;0.71;72.44
15932;BME280;8065;49.520;11.284;2023-02-28T02:26:10;98318.44;;;0.69;72.54
15932;BME280;8065;49.520;11.284;2023-02-28T02:35:13;98307.91;;;0.64;72.79
15932;BME280;8065;49.520;11.284;2023-02-28T02:37:44;98309.72;;;0.63;72.85
15932;BME280;8065;49.520;11.284;2023-02-28T02:40:15;98307.44;;;0.67;72.76
15932;BME280;8065;49.520;11.284;2023-02-28T02:42:49;98302.00;;;0.57;73.09
15932;BME280;8065;49.520;11.284;2023-02-28T02:45:20;98304.72;;;0.62;72.70
15932;BME280;8065;49.520;11.284;2023-02-28T02:47:49;98303.00;;;0.68;72.67
15932;BME280;8065;49.520;11.284;2023-02-28T02:50:23;98307.50;;;0.44;73.82
15932;BME280;8065;49.520;11.284;2023-02-28T02:52:53;98305.03;;;0.65;72.58
15932;BME280;8065;49.520;11.284;2023-02-28T02:55:22;98308.63;;;0.48;73.09
15932;BME280;8065;49.520;11.284;2023-02-28T02:57:52;98308.50;;;0.54;73.29
15932;BME280;8065;49.520;11.284;2023-02-28T03:00:23;98311.34;;;0.53;73.48
15932;BME280;8065;49.520;11.284;2023-02-28T03:02:52;98305.19;;;0.59;73.08
15932;BME280;8065;49.520;11.284;2023-02-28T03:05:24;98306.78;;;0.60;73.33
15932;BME280;8065;49.520;11.284;2023-02-28T03:07:51;98309.94;;;0.62;72.85
15932;BME280;8065;49.520;11.284;2023-02-28T03:10:34;98314.16;;;0.63;72.85
15932;BME280;8065;49.520;11.284;2023-02-28T03:13:37;98309.63;;;0.58;73.36
15932;BME280;8065;49.520;11.284;2023-02-28T03:16:18;98308.81;;;0.58;72.80
15932;BME280;8065;49.520;11.284;2023-02-28T03:18:53;98317.41;;;0.70;72.85
15932;BME280;8065;49.520;11.284;2023-02-28T03:21:27;98320.38;;;0.74;72.23
15932;BME280;8065;49.520;11.284;2023-02-28T03:24:00;98309.25;;;0.67;73.04
15932;BME280;8065;49.520;11.284;2023-02-28T03:26:31;98319.00;;;0.71;72.91
15932;BME280;8065;49.520;11.284;2023-02-28T03:29:03;98311.88;;;0.67;72.65
15932;BME280;8065;49.520;11.284;2023-02-28T03:31:35;98309.94;;;0.62;73.12
15932;BME280;8065;49.520;11.284;2023-02-28T03:34:06;98311.41;;;0.70;72.93
15932;BME280;8065;49.520;11.284;2023-02-28T03:36:37;98303.97;;;0.78;72.30
15932;BME280;8065;49.520;11.284;2023-02-28T03:39:13;98316.81;;;0.80;72.56
15932;BME280;8065;49.520;11.284;2023-02-28T03:41:42;98311.91;;;0.83;71.98
15932;BME280;8065;49.520;11.284;2023-02-28T03:44:15;98307.28;;;0.74;72.64
15932;BME280;8065;49.520;11.284;2023-02-28T03:46:48;98313.81;;;0.88;72.16
15932;BME280;8065;49.520;11.284;2023-02-28T03:49:22;98311.63;;;0.68;72.96
15932;BME280;8065;49.520;11.284;2023-02-28T03:51:54;98311.72;;;0.73;72.43
15932;BME280;8065;49.520;11.284;2023-02-28T03:54:26;98317.63;;;0.80;72.16
15932;BME280;8065;49.520;11.284;2023-02-28T03:56:59;98312.31;;;0.63;73.13
15932;BME280;8065;49.520;11.284;2023-02-28T03:59:34;98319.19;;;0.53;72.92
15932;BME280;8065;49.520;11.284;2023-02-28T04:02:03;98306.09;;;0.53;73.16
15932;BME280;8065;49.520;11.284;2023-02-28T04:04:29;98304.63;;;0.57;72.83
15932;BME280;8065;49.520;11.284;2023-02-28T04:07:03;98313.16;;;0.52;73.40
15932;BME280;8065;49.520;11.284;2023-02-28T04:09:30;98319.13;;;0.24;74.35
15932;BME280;8065;49.520;11.284;2023-02-28T04:11:56;98322.50;;;0.37;74.68
15932;BME280;8065;49.520;11.284;2023-02-28T04:14:23;98319.53;;;0.45;73.81
15932;BME280;8065;49.520;11.284;2023-02-28T04:16:50;98313.50;;;0.56;73.31
15932;BME280;8065;49.520;11.284;2023-02-28T04:19:17;98316.19;;;0.61;73.31
15932;BME280;8065;49.520;11.284;2023-02-28T04:21:47;98318.47;;;0.57;73.18
15932;BME280;8065;49.520;11.284;2023-02-28T04:24:17;98318.81;;;0.61;73.48
15932;BME280;8065;49.520;11.284;2023-02-28T04:26:45;98319.16;;;0.64;72.94
15932;BME280;8065;49.520;11.284;2023-02-28T04:29:14;98325.16;;;0.65;72.76
15932;BME280;8065;49.520;11.284;2023-02-28T04:31:40;98322.81;;;0.52;73.23
15932;BME280;8065;49.520;11.284;2023-02-28T04:34:07;98314.72;;;0.65;72.57
15932;BME280;8065;49.520;11.284;2023-02-28T04:36:33;98315.84;;;0.69;72.62
15932;BME280;8065;49.520;11.284;2023-02-28T04:39:00;98315.97;;;0.62;73.11
15932;BME280;8065;49.520;11.284;2023-02-28T04:41:28;98323.19;;;0.44;73.40
15932;BME280;8065;49.520;11.284;2023-02-28T04:43:55;98308.81;;;0.58;72.76
15932;BME280;8065;49.520;11.284;2023-02-28T04:46:22;98316.38;;;0.43;73.71
15932;BME280;8065;49.520;11.284;2023-02-28T04:48:49;98306.31;;;0.63;73.22
15932;BME280;8065;49.520;11.284;2023-02-28T04:51:17;98309.84;;;0.57;72.85
15932;BME280;8065;49.520;11.284;2023-02-28T04:53:44;98313.13;;;0.64;73.17
15932;BME280;8065;49.520;11.284;2023-02-28T04:56:12;98303.56;;;0.70;73.14
15932;BME280;8065;49.520;11.284;2023-02-28T04:58:40;98308.34;;;0.61;73.25
15932;BME280;8065;49.520;11.284;2023-02-28T05:01:17;98310.03;;;0.67;72.70
15932;BME280;8065;49.520;11.284;2023-02-28T05:03:45;98318.53;;;0.74;72.66
15932;BME280;8065;49.520;11.284;2023-02-28T05:06:13;98319.66;;;0.78;72.71
15932;BME280;8065;49.520;11.284;2023-02-28T05:08:40;98320.59;;;0.72;72.50
15932;BME280;8065;49.520;11.284;2023-02-28T05:11:16;98322.19;;;0.73;72.77
15932;BME280;8065;49.520;11.284;2023-02-28T05:13:44;98319.09;;;0.76;72.51
15932;BME280;8065;49.520;11.284;2023-02-28T05:16:11;98323.88;;;0.79;75.54
15932;BME280;8065;49.520;11.284;2023-02-28T05:18:37;98323.09;;;0.95;77.44
15932;BME280;8065;49.520;11.284;2023-02-28T05:21:04;98325.06;;;0.88;73.76
15932;BME280;8065;49.520;11.284;2023-02-28T05:23:31;98322.66;;;0.87;73.30
15932;BME280;8065;49.520;11.284;2023-02-28T05:25:58;98322.22;;;0.90;72.96
15932;BME280;8065;49.520;11.284;2023-02-28T05:28:24;98321.81;;;0.81;73.41
15932;BME280;8065;49.520;11.284;2023-02-28T05:30:52;98329.56;;;0.76;73.10
15932;BME280;8065;49.520;11.284;2023-02-28T05:33:18;98326.94;;;0.76;72.96
15932;BME280;8065;49.520;11.284;2023-02-28T05:35:45;98328.25;;;0.62;73.27
15932;BME280;8065;49.520;11.284;2023-02-28T05:38:11;98324.97;;;0.55;73.25
15932;BME280;8065;49.520;11.284;2023-02-28T05:40:38;98328.16;;;0.57;72.83
15932;BME280;8065;49.520;11.284;2023-02-28T05:43:05;98337.06;;;0.32;74.15
15932;BME280;8065;49.520;11.284;2023-02-28T05:45:31;98334.44;;;0.32;74.16
15932;BME280;8065;49.520;11.284;2023-02-28T05:47:59;98336.59;;;0.36;73.67
15932;BME280;8065;49.520;11.284;2023-02-28T05:50:26;98341.50;;;0.32;74.23
15932;BME280;8065;49.520;11.284;2023-02-28T05:52:52;98343.41;;;0.37;73.98
15932;BME280;8065;49.520;11.284;2023-02-28T05:55:19;98338.19;;;0.37;73.77
15932;BME280;8065;49.520;11.284;2023-02-28T05:57:45;98344.66;;;0.46;73.76
15932;BME280;8065;49.520;11.284;2023-02-28T06:00:13;98350.44;;;0.48;73.44
15932;BME280;8065;49.520;11.284;2023-02-28T06:02:40;98348.44;;;0.26;74.20
15932;BME280;8065;49.520;11.284;2023-02-28T06:05:13;98348.28;;;0.45;73.59
15932;BME280;8065;49.520;11.284;2023-02-28T06:07:39;98350.69;;;0.46;73.24
15932;BME280;8065;49.520;11.284;2023-02-28T06:10:06;98355.88;;;0.58;73.12
15932;BME280;8065;49.520;11.284;2023-02-28T06:12:33;98359.53;;;0.57;73.31
15932;BME280;8065;49.520;11.284;2023-02-28T06:15:00;98360.66;;;0.61;72.76
15932;BME280;8065;49.520;11.284;2023-02-28T06:17:26;98364.97;;;0.55;73.10
15932;BME280;8065;49.520;11.284;2023-02-28T06:19:53;98359.25;;;0.70;72.49
15932;BME280;8065;49.520;11.284;2023-02-28T06:22:21;98364.03;;;0.73;72.77
15932;BME280;8065;49.520;11.284;2023-02-28T06:24:48;98359.47;;;0.80;72.83
15932;BME280;8065;49.520;11.284;2023-02-28T06:27:14;98360.19;;;0.92;72.23
15932;BME280;8065;49.520;11.284;2023-02-28T06:29:41;98366.06;;;0.99;72.40
15932;BME280;8065;49.520;11.284;2023-02-28T06:32:07;98358.97;;;1.12;71.55
15932;BME280;8065;49.520;11.284;2023-02-28T06:34:34;98360.09;;;1.16;71.46
15932;BME280;8065;49.520;11.284;2023-02-28T06:37:02;98366.22;;;1.21;71.72
15932;BME280;8065;49.520;11.284;2023-02-28T06:39:30;98370.19;;;1.24;71.24
15932;BME280;8065;49.520;11.284;2023-02-28T06:41:57;98370.19;;;1.24;71.37
15932;BME280;8065;49.520;11.284;2023-02-28T06:44:24;98371.91;;;1.18;71.00
15932;BME280;8065;49.520;11.284;2023-02-28T06:46:50;98364.94;;;1.24;71.00
15932;BME280;8065;49.520;11.284;2023-02-28T06:49:17;98374.13;;;1.10;70.90
15932;BME280;8065;49.520;11.284;2023-02-28T06:51:44;98367.19;;;1.32;71.43
15932;BME280;8065;49.520;11.284;2023-02-28T06:54:11;98368.84;;;1.38;70.76
15932;BME280;8065;49.520;11.284;2023-02-28T06:56:39;98364.34;;;1.50;71.28
15932;BME280;8065;49.520;11.284;2023-02-28T06:59:06;98376.13;;;1.64;70.85
15932;BME280;8065;49.520;11.284;2023-02-28T07:01:32;98370.72;;;1.54;71.27
15932;BME280;8065;49.520;11.284;2023-02-28T07:03:59;98371.66;;;1.65;70.52
15932;BME280;8065;49.520;11.284;2023-02-28T07:06:26;98374.03;;;1.67;71.19
15932;BME280;8065;49.520;11.284;2023-02-28T07:08:53;98375.59;;;1.84;70.19
15932;BME280;8065;49.520;11.284;2023-02-28T07:11:20;98378.16;;;1.96;70.45
15932;BME280;8065;49.520;11.284;2023-02-28T07:13:51;98373.84;;;2.07;70.04
15932;BME280;8065;49.520;11.284;2023-02-28T07:16:17;98379.88;;;2.07;70.18
15932;BME280;8065;49.520;11.284;2023-02-28T07:18:44;98384.03;;;2.03;69.88
15932;BME280;8065;49.520;11.284;2023-02-28T07:21:11;98378.44;;;2.16;69.81
15932;BME280;8065;49.520;11.284;2023-02-28T07:23:38;98382.41;;;2.19;69.25
15932;BME280;8065;49.520;11.284;2023-02-28T07:26:05;98378.66;;;2.32;69.07
15932;BME280;8065;49.520;11.284;2023-02-28T07:28:32;98379.28;;;2.39;69.12
15932;BME280;8065;49.520;11.284;2023-02-28T07:31:04;98381.66;;;2.62;67.96
15932;BME280;8065;49.520;11.284;2023-02-28T07:33:31;98380.00;;;2.78;68.30
15932;BME280;8065;49.520;11.284;2023-02-28T07:36:00;98380.44;;;2.91;67.39
15932;BME280;8065;49.520;11.284;2023-02-28T07:38:27;98383.97;;;3.02;67.47
15932;BME280;8065;49.520;11.284;2023-02-28T07:40:53;98383.34;;;3.17;66.99
15932;BME280;8065;49.520;11.284;2023-02-28T07:43:20;98384.88;;;3.13;66.94
15932;BME280;8065;49.520;11.284;2023-02-28T07:45:46;98385.50;;;3.25;66.19
15932;BME280;8065;49.520;11.284;2023-02-28T07:48:14;98386.25;;;3.20;65.88
15932;BME280;8065;49.520;11.284;2023-02-28T07:50:40;98385.03;;;3.28;66.36
15932;BME280;8065;49.520;11.284;2023-02-28T07:53:07;98383.09;;;3.45;65.77
15932;BME280;8065;49.520;11.284;2023-02-28T07:55:34;98375.34;;;3.66;64.68
15932;BME280;8065;49.520;11.284;2023-02-28T07:58:00;98381.19;;;3.73;64.76
15932;BME280;8065;49.520;11.284;2023-02-28T08:00:27;98385.41;;;3.74;64.66
15932;BME280;8065;49.520;11.284;2023-02-28T08:02:54;98372.72;;;3.98;64.72
15932;BME280;8065;49.520;11.284;2023-02-28T08:05:21;98377.41;;;4.33;63.80
15932;BME280;8065;49.520;11.284;2023-02-28T08:07:48;98381.13;;;4.42;63.28
15932;BME280;8065;49.520;11.284;2023-02-28T08:10:15;98375.94;;;4.57;62.92
15932;BME280;8065;49.520;11.284;2023-02-28T08:12:42;98380.72;;;4.65;61.53
15932;BME280;8065;49.520;11.284;2023-02-28T08:15:09;98378.47;;;4.94;60.88
15932;BME280;8065;49.520;11.284;2023-02-28T08:17:35;98381.41;;;5.08;60.68
15932;BME280;8065;49.520;11.284;2023-02-28T08:20:02;98381.91;;;5.05;60.18
15932;BME280;8065;49.520;11.284;2023-02-28T08:22:30;98384.84;;;5.13;60.26
15932;BME280;8065;49.520;11.284;2023-02-28T08:24:57;98384.06;;;5.33;59.44
15932;BME280;8065;49.520;11.284;2023-02-28T08:27:23;98378.22;;;5.06;59.69
15932;BME280;8065;49.520;11.284;2023-02-28T08:29:49;98390.31;;;4.97;59.36
15932;BME280;8065;49.520;11.284;2023-02-28T08:32:16;98386.22;;;5.56;58.06
15932;BME280;8065;49.520;11.284;2023-02-28T08:34:42;98383.56;;;5.56;58.29
15932;BME280;8065;49.520;11.284;2023-02-28T08:37:09;98376.97;;;5.39;58.74
15932;BME280;8065;49.520;11.284;2023-02-28T08:39:37;98377.25;;;5.73;57.59
15932;BME280;8065;49.520;11.284;2023-02-28T08:42:03;98379.38;;;5.71;57.38
15932;BME280;8065;49.520;11.284;2023-02-28T08:44:30;98382.81;;;5.91;56.85
15932;BME280;8065;49.520;11.284;2023-02-28T08:46:56;98380.94;;;5.72;56.52
15932;BME280;8065;49.520;11.284;2023-02-28T08:49:23;98383.06;;;5.70;56.64
15932;BME280;8065;49.520;11.284;2023-02-28T08:51:49;98394.94;;;4.69;57.72
15932;BME280;8065;49.520;11.284;2023-02-28T08:54:16;98391.44;;;4.06;59.39
15932;BME280;8065;49.520;11.284;2023-02-28T08:56:46;98395.25;;;4.25;58.79
15932;BME280;8065;49.520;11.284;2023-02-28T08:59:12;98390.16;;;4.09;60.43
15932;BME280;8065;49.520;11.284;2023-02-28T09:01:39;98379.53;;;4.41;58.73
15932;BME280;8065;49.520;11.284;2023-02-28T09:04:06;98395.75;;;4.22;59.07
15932;BME280;8065;49.520;11.284;2023-02-28T09:06:33;98384.22;;;4.28;58.31
15932;BME280;8065;49.520;11.284;2023-02-28T09:09:00;98386.28;;;4.74;57.89
15932;BME280;8065;49.520;11.284;2023-02-28T09:11:30;98377.78;;;5.70;57.17
15932;BME280;8065;49.520;11.284;2023-02-28T09:13:59;98368.22;;;6.45;54.81
15932;BME280;8065;49.520;11.284;2023-02-28T09:16:26;98372.31;;;7.26;54.21
15932;BME280;8065;49.520;11.284;2023-02-28T09:18:52;98371.75;;;6.84;52.40
15932;BME280;8065;49.520;11.284;2023-02-28T09:21:19;98370.84;;;6.40;53.37
15932;BME280;8065;49.520;11.284;2023-02-28T09:23:48;98373.09;;;6.82;51.96
15932;BME280;8065;49.520;11.284;2023-02-28T09:26:16;98372.78;;;7.38;51.27
15932;BME280;8065;49.520;11.284;2023-02-28T09:28:43;98366.84;;;7.12;50.69
15932;BME280;8065;49.520;11.284;2023-02-28T09:31:16;98375.97;;;7.35;50.64
15932;BME280;8065;49.520;11.284;2023-02-28T09:33:46;98372.69;;;7.53;49.63
15932;BME280;8065;49.520;11.284;2023-02-28T09:36:12;98378.22;;;7.56;50.39
15932;BME280;8065;49.520;11.284;2023-02-28T09:38:38;98371.19;;;7.76;48.27
15932;BME280;8065;49.520;11.284;2023-02-28T09:41:13;98373.28;;;8.08;48.30
15932;BME280;8065;49.520;11.284;2023-02-28T09:43:43;98374.34;;;7.78;49.15
15932;BME280;8065;49.520;11.284;2023-02-28T09:46:21;98375.41;;;8.06;48.82
15932;BME280;8065;49.520;11.284;2023-02-28T09:48:52;98369.09;;;8.02;48.38
15932;BME280;8065;49.520;11.284;2023-02-28T09:51:29;98375.25;;;8.74;47.64
15932;BME280;8065;49.520;11.284;2023-02-28T09:53:58;98378.19;;;7.90;48.18
15932;BME280;8065;49.520;11.284;2023-02-28T09:56:29;98381.16;;;7.84;48.33
15932;BME280;8065;49.520;11.284;2023-02-28T09:58:59;98376.56;;;8.52;46.58
15932;BME280;8065;49.520;11.284;2023-02-28T10:01:35;98375.84;;;8.47;46.75
15932;BME280;8065;49.520;11.284;2023-02-28T10:04:08;98376.53;;;9.19;45.97
15932;BME280;8065;49.520;11.284;2023-02-28T10:06:41;98381.25;;;9.22;45.58
15932;BME280;8065;49.520;11.284;2023-02-28T10:09:14;98376.41;;;8.86;45.88
15932;BME280;8065;49.520;11.284;2023-02-28T10:11:43;98377.69;;;9.83;46.15
15932;BME280;8065;49.520;11.284;2023-02-28T10:14:13;98371.28;;;9.84;45.75
15932;BME280;8065;49.520;11.284;2023-02-28T10:16:44;98364.13;;;10.44;44.38
15932;BME280;8065;49.520;11.284;2023-02-28T10:19:20;98362.97;;;10.23;44.46
15932;BME280;8065;49.520;11.284;2023-02-28T10:21:53;98369.06;;;10.78;43.80
15932;BME280;8065;49.520;11.284;2023-02-28T10:24:26;98380.22;;;9.56;44.72
15932;BME280;8065;49.520;11.284;2023-02-28T10:26:59;98368.72;;;9.79;44.74
15932;BME280;8065;49.520;11.284;2023-02-28T10:29:27;98365.66;;;10.04;44.63
15932;BME280;8065;49.520;11.284;2023-02-28T10:31:56;98365.00;;;9.80;44.20
15932;BME280;8065;49.520;11.284;2023-02-28T10:34:24;98369.22;;;9.48;45.13
15932;BME280;8065;49.520;11.284;2023-02-28T10:36:51;98364.25;;;9.93;43.88
15932;BME280;8065;49.520;11.284;2023-02-28T10:39:34;98365.47;;;10.14;43.13
15932;BME280;8065;49.520;11.284;2023-02-28T10:42:01;98364.78;;;9.76;43.67
15932;BME280;8065;49.520;11.284;2023-02-28T10:44:28;98366.38;;;8.65;45.52
15932;BME280;8065;49.520;11.284;2023-02-28T10:46:56;98367.47;;;9.90;44.08
15932;BME280;8065;49.520;11.284;2023-02-28T10:49:24;98365.81;;;9.62;44.82
15932;BME280;8065;49.520;11.284;2023-02-28T10:51:53;98365.41;;;9.87;44.37
15932;BME280;8065;49.520;11.284;2023-02-28T10:54:26;98365.81;;;10.54;43.92
15932;BME280;8065;49.520;11.284;2023-02-28T10:57:18;98358.50;;;11.01;43.48
15932;BME280;8065;49.520;11.284;2023-02-28T10:59:45;98369.13;;;10.18;43.51
15932;BME280;8065;49.520;11.284;2023-02-28T11:02:32;98364.34;;;10.48;43.22
15932;BME280;8065;49.520;11.284;2023-02-28T11:04:59;98361.00;;;10.56;42.54
15932;BME280;8065;49.520;11.284;2023-02-28T11:07:26;98369.34;;;9.90;43.55
15932;BME280;8065;49.520;11.284;2023-02-28T11:09:54;98367.41;;;9.95;44.23
15932;BME280;8065;49.520;11.284;2023-02-28T11:12:23;98369.34;;;9.01;45.30
15932;BME280;8065;49.520;11.284;2023-02-28T11:14:53;98370.53;;;8.90;45.36
15932;BME280;8065;49.520;11.284;2023-02-28T11:17:23;98366.81;;;9.98;44.33
15932;BME280;8065;49.520;11.284;2023-02-28T11:19:53;98363.56;;;10.61;43.93
15932;BME280;8065;49.520;11.284;2023-02-28T11:22:24;98368.38;;;9.99;44.39
15932;BME280;8065;49.520;11.284;2023-02-28T11:24:55;98364.94;;;10.72;43.64
15932;BME280;8065;49.520;11.284;2023-02-28T11:27:44;98365.31;;;10.93;43.78
15932;BME280;8065;49.520;11.284;2023-02-28T11:30:25;98364.84;;;10.23;42.84
15932;BME280;8065;49.520;11.284;2023-02-28T11:32:52;98359.56;;;10.17;43.24
15932;BME280;8065;49.520;11.284;2023-02-28T11:35:24;98369.78;;;9.45;43.79
15932;BME280;8065;49.520;11.284;2023-02-28T11:37:52;98346.38;;;10.12;43.56
15932;BME280;8065;49.520;11.284;2023-02-28T11:40:24;98367.97;;;8.84;44.78
15932;BME280;8065;49.520;11.284;2023-02-28T11:43:04;98359.41;;;9.49;44.40
15932;BME280;8065;49.520;11.284;2023-02-28T11:45:44;98344.56;;;10.40;44.12
15932;BME280;8065;49.520;11.284;2023-02-28T11:48:19;98356.84;;;9.58;44.22
15932;BME280;8065;49.520;11.284;2023-02-28T11:50:58;98350.53;;;10.18;44.11
15932;BME280;8065;49.520;11.284;2023-02-28T11:53:39;98335.59;;;10.64;43.50
15932;BME280;8065;49.520;11.284;2023-02-28T11:56:17;98355.19;;;9.94;44.21
15932;BME280;8065;49.520;11.284;2023-02-28T11:58:52;98343.75;;;10.95;42.82
15932;BME280;8065;49.520;11.284;2023-02-28T12:01:31;98355.44;;;9.46;43.63
15932;BME280;8065;49.520;11.284;2023-02-28T12:04:12;98348.00;;;9.48;43.90
15932;BME280;8065;49.520;11.284;2023-02-28T12:06:48;98352.53;;;10.54;44.04
15932;BME280;8065;49.520;11.284;2023-02-28T12:09:30;98344.28;;;9.12;44.52
15932;BME280;8065;49.520;11.284;2023-02-28T12:12:06;98345.72;;;9.56;44.71
15932;BME280;8065;49.520;11.284;2023-02-28T12:14:59;98354.22;;;9.90;44.35
15932;BME280;8065;49.520;11.284;2023-02-28T12:17:40;98345.81;;;10.15;43.36
15932;BME280;8065;49.520;11.284;2023-02-28T12:20:18;98341.56;;;9.68;45.16
15932;BME280;8065;49.520;11.284;2023-02-28T12:22:57;98334.34;;;11.11;44.62
15932;BME280;8065;49.520;11.284;2023-02-28T12:25:41;98332.66;;;11.37;43.37
15932;BME280;8065;49.520;11.284;2023-02-28T12:28:12;98336.72;;;10.03;43.65
15932;BME280;8065;49.520;11.284;2023-02-28T12:30:45;98331.69;;;10.20;43.04
15932;BME280;8065;49.520;11.284;2023-02-28T12:33:16;98335.81;;;10.40;43.31
15932;BME280;8065;49.520;11.284;2023-02-28T12:35:48;98327.53;;;10.55;43.94
15932;BME280;8065;49.520;11.284;2023-02-28T12:38:20;98319.09;;;10.26;43.48
15932;BME280;8065;49.520;11.284;2023-02-28T12:40:51;98313.13;;;10.01;44.61
15932;BME280;8065;49.520;11.284;2023-02-28T12:43:19;98330.88;;;10.20;44.78
15932;BME280;8065;49.520;11.284;2023-02-28T12:45:50;98315.16;;;10.37;43.47
15932;BME280;8065;49.520;11.284;2023-02-28T12:48:22;98317.69;;;10.69;44.13
15932;BME280;8065;49.520;11.284;2023-02-28T12:50:50;98311.63;;;11.27;43.92
15932;BME280;8065;49.520;11.284;2023-02-28T12:53:24;98304.00;;;11.34;43.98
15932;BME280;8065;49.520;11.284;2023-02-28T12:56:03;98313.25;;;11.59;42.57
15932;BME280;8065;49.520;11.284;2023-02-28T12:58:38;98318.06;;;10.08;44.50
15932;BME280;8065;49.520;11.284;2023-02-28T13:01:23;98321.38;;;10.00;44.65
15932;BME280;8065;49.520;11.284;2023-02-28T13:04:11;98317.22;;;9.80;44.82
15932;BME280;8065;49.520;11.284;2023-02-28T13:06:56;98315.25;;;10.32;44.89
15932;BME280;8065;49.520;11.284;2023-02-28T13:09:27;98312.47;;;10.50;44.49
15932;BME280;8065;49.520;11.284;2023-02-28T13:11:55;98322.34;;;10.23;44.91
15932;BME280;8065;49.520;11.284;2023-02-28T13:14:25;98322.31;;;10.50;44.23
15932;BME280;8065;49.520;11.284;2023-02-28T13:16:58;98325.19;;;9.80;44.97
15932;BME280;8065;49.520;11.284;2023-02-28T13:19:27;98314.94;;;10.47;44.52
15932;BME280;8065;49.520;11.284;2023-02-28T13:21:55;98308.53;;;10.48;44.43
15932;BME280;8065;49.520;11.284;2023-02-28T13:24:43;98319.69;;;10.23;45.62
15932;BME280;8065;49.520;11.284;2023-02-28T13:29:58;98312.38;;;10.42;45.14
15932;BME280;8065;49.520;11.284;2023-02-28T13:32:35;98318.22;;;9.84;44.93
15932;BME280;8065;49.520;11.284;2023-02-28T13:35:37;98316.34;;;9.01;46.19
15932;BME280;8065;49.520;11.284;2023-02-28T13:38:16;98311.00;;;9.38;47.00